sensor_id;sensor_type;location;lat;lon;timestamp;P1;durP1;ratioP1;P2;durP2;ratioP2
3131;SDS011;62090;52.330;9.104;2023-02-03T00:02:36;60.93;;;38.13;;
3131;SDS011;62090;52.330;9.104;2023-02-03T00:05:06;58.50;;;35.70;;
3131;SDS011;62090;52.330;9.104;2023-02-03T00:07:39;52.17;;;35.40;;
3131;SDS011;62090;52.330;9.104;2023-02-03T00:10:10;56.67;;;35.23;;
3131;SDS011;62090;52.330;9.104;2023-02-03T00:12:39;55.93;;;34.43;;
3131;SDS011;62090;52.330;9.104;2023-02-03T00:15:09;56.50;;;35.17;;
3131;SDS011;62090;52.330;9.104;2023-02-03T00:17:39;55.40;;;34.80;;
3131;SDS011;62090;52.330;9.104;2023-02-03T00:20:09;47.40;;;33.77;;
3131;SDS011;62090;52.330;9.104;2023-02-03T00:22:42;55.87;;;34.37;;
3131;SDS011;62090;52.330;9.104;2023-02-03T00:25:12;50.40;;;33.40;;
3131;SDS011;62090;52.330;9.104;2023-02-03T00:27:42;61.73;;;32.97;;
3131;SDS011;62090;52.330;9.104;2023-02-03T00:30:12;52.63;;;32.20;;
3131;SDS011;62090;52.330;9.104;2023-02-03T00:32:42;49.73;;;31.50;;
3131;SDS011;62090;52.330;9.104;2023-02-03T00:35:12;50.63;;;32.77;;
3131;SDS011;62090;52.330;9.104;2023-02-03T00:37:44;48.67;;;30.67;;
3131;SDS011;62090;52.330;9.104;2023-02-03T00:40:20;46.87;;;31.07;;
3131;SDS011;62090;52.330;9.104;2023-02-03T00:42:52;51.00;;;30.90;;
3131;SDS011;62090;52.330;9.104;2023-02-03T00:45:21;45.23;;;29.17;;
3131;SDS011;62090;52.330;9.104;2023-02-03T00:47:51;49.90;;;29.97;;
3131;SDS011;62090;52.330;9.104;2023-02-03T00:50:21;47.87;;;29.17;;
3131;SDS011;62090;52.330;9.104;2023-02-03T00:52:53;44.93;;;29.40;;
3131;SDS011;62090;52.330;9.104;2023-02-03T00:55:24;36.20;;;28.30;;
3131;SDS011;62090;52.330;9.104;2023-02-03T00:57:54;49.13;;;28.37;;
3131;SDS011;62090;52.330;9.104;2023-02-03T01:00:24;44.60;;;27.97;;
3131;SDS011;62090;52.330;9.104;2023-02-03T01:02:54;48.50;;;29.27;;
3131;SDS011;62090;52.330;9.104;2023-02-03T01:05:24;39.83;;;27.87;;
3131;SDS011;62090;52.330;9.104;2023-02-03T01:07:56;36.73;;;27.10;;
3131;SDS011;62090;52.330;9.104;2023-02-03T01:10:26;51.23;;;27.37;;
3131;SDS011;62090;52.330;9.104;2023-02-03T01:12:56;43.90;;;27.40;;
3131;SDS011;62090;52.330;9.104;2023-02-03T01:15:26;37.63;;;25.30;;
3131;SDS011;62090;52.330;9.104;2023-02-03T01:17:56;41.90;;;24.50;;
3131;SDS011;62090;52.330;9.104;2023-02-03T01:20:26;36.30;;;23.93;;
3131;SDS011;62090;52.330;9.104;2023-02-03T01:22:59;38.20;;;24.10;;
3131;SDS011;62090;52.330;9.104;2023-02-03T01:25:29;34.57;;;22.93;;
3131;SDS011;62090;52.330;9.104;2023-02-03T01:28:00;44.17;;;22.87;;
3131;SDS011;62090;52.330;9.104;2023-02-03T01:30:31;36.33;;;22.13;;
3131;SDS011;62090;52.330;9.104;2023-02-03T01:33:02;36.60;;;22.07;;
3131;SDS011;62090;52.330;9.104;2023-02-03T01:35:32;28.33;;;20.40;;
3131;SDS011;62090;52.330;9.104;2023-02-03T01:38:05;31.10;;;21.20;;
3131;SDS011;62090;52.330;9.104;2023-02-03T01:40:40;36.83;;;19.50;;
3131;SDS011;62090;52.330;9.104;2023-02-03T01:43:26;36.00;;;19.20;;
3131;SDS011;62090;52.330;9.104;2023-02-03T01:45:58;41.77;;;19.70;;
3131;SDS011;62090;52.330;9.104;2023-02-03T01:48:31;33.20;;;19.60;;
3131;SDS011;62090;52.330;9.104;2023-02-03T01:51:02;34.50;;;19.80;;
3131;SDS011;62090;52.330;9.104;2023-02-03T01:53:36;31.83;;;18.77;;
3131;SDS011;62090;52.330;9.104;2023-02-03T01:56:05;32.43;;;18.00;;
3131;SDS011;62090;52.330;9.104;2023-02-03T01:58:37;28.60;;;17.60;;
3131;SDS011;62090;52.330;9.104;2023-02-03T02:01:09;29.60;;;17.40;;
3131;SDS011;62090;52.330;9.104;2023-02-03T02:03:39;24.40;;;17.40;;
3131;SDS011;62090;52.330;9.104;2023-02-03T02:06:12;29.73;;;17.57;;
3131;SDS011;62090;52.330;9.104;2023-02-03T02:08:46;32.53;;;18.07;;
3131;SDS011;62090;52.330;9.104;2023-02-03T02:11:18;26.60;;;17.33;;
3131;SDS011;62090;52.330;9.104;2023-02-03T02:13:49;24.90;;;16.53;;
3131;SDS011;62090;52.330;9.104;2023-02-03T02:16:26;28.40;;;16.40;;
3131;SDS011;62090;52.330;9.104;2023-02-03T02:19:08;23.27;;;15.47;;
3131;SDS011;62090;52.330;9.104;2023-02-03T02:22:01;28.50;;;17.30;;
3131;SDS011;62090;52.330;9.104;2023-02-03T02:24:45;30.67;;;14.90;;
3131;SDS011;62090;52.330;9.104;2023-02-03T02:30:35;27.03;;;14.80;;
3131;SDS011;62090;52.330;9.104;2023-02-03T02:33:35;25.07;;;16.17;;
3131;SDS011;62090;52.330;9.104;2023-02-03T02:36:14;21.43;;;14.87;;
3131;SDS011;62090;52.330;9.104;2023-02-03T02:38:53;25.57;;;15.50;;
3131;SDS011;62090;52.330;9.104;2023-02-03T02:41:32;24.70;;;14.33;;
3131;SDS011;62090;52.330;9.104;2023-02-03T02:44:09;22.33;;;13.87;;
3131;SDS011;62090;52.330;9.104;2023-02-03T02:46:45;24.80;;;15.07;;
3131;SDS011;62090;52.330;9.104;2023-02-03T02:49:21;28.30;;;15.43;;
3131;SDS011;62090;52.330;9.104;2023-02-03T02:51:59;26.67;;;15.30;;
3131;SDS011;62090;52.330;9.104;2023-02-03T02:54:33;27.10;;;13.50;;
3131;SDS011;62090;52.330;9.104;2023-02-03T02:57:09;28.43;;;14.50;;
3131;SDS011;62090;52.330;9.104;2023-02-03T02:59:41;24.10;;;13.83;;
3131;SDS011;62090;52.330;9.104;2023-02-03T03:02:11;20.73;;;12.93;;
3131;SDS011;62090;52.330;9.104;2023-02-03T03:04:45;22.10;;;12.10;;
3131;SDS011;62090;52.330;9.104;2023-02-03T03:07:19;23.77;;;12.67;;
3131;SDS011;62090;52.330;9.104;2023-02-03T03:09:55;19.43;;;11.20;;
3131;SDS011;62090;52.330;9.104;2023-02-03T03:12:30;17.47;;;10.87;;
3131;SDS011;62090;52.330;9.104;2023-02-03T03:15:04;18.73;;;10.50;;
3131;SDS011;62090;52.330;9.104;2023-02-03T03:17:38;17.63;;;9.90;;
3131;SDS011;62090;52.330;9.104;2023-02-03T03:20:14;16.60;;;9.97;;
3131;SDS011;62090;52.330;9.104;2023-02-03T03:22:49;20.23;;;10.77;;
3131;SDS011;62090;52.330;9.104;2023-02-03T03:25:23;19.00;;;10.30;;
3131;SDS011;62090;52.330;9.104;2023-02-03T03:27:59;19.13;;;10.67;;
3131;SDS011;62090;52.330;9.104;2023-02-03T03:30:31;19.20;;;10.20;;
3131;SDS011;62090;52.330;9.104;2023-02-03T03:33:04;19.70;;;10.23;;
3131;SDS011;62090;52.330;9.104;2023-02-03T03:35:40;14.93;;;9.30;;
3131;SDS011;62090;52.330;9.104;2023-02-03T03:38:16;23.30;;;11.07;;
3131;SDS011;62090;52.330;9.104;2023-02-03T03:40:52;21.33;;;10.57;;
3131;SDS011;62090;52.330;9.104;2023-02-03T03:43:27;20.53;;;9.33;;
3131;SDS011;62090;52.330;9.104;2023-02-03T03:46:00;21.63;;;10.77;;
3131;SDS011;62090;52.330;9.104;2023-02-03T03:48:38;18.60;;;9.67;;
3131;SDS011;62090;52.330;9.104;2023-02-03T03:51:17;17.00;;;9.23;;
3131;SDS011;62090;52.330;9.104;2023-02-03T03:53:50;23.67;;;9.90;;
3131;SDS011;62090;52.330;9.104;2023-02-03T03:56:23;22.33;;;9.80;;
3131;SDS011;62090;52.330;9.104;2023-02-03T03:58:59;19.87;;;8.97;;
3131;SDS011;62090;52.330;9.104;2023-02-03T04:01:32;20.40;;;9.57;;
3131;SDS011;62090;52.330;9.104;2023-02-03T04:04:02;19.27;;;9.97;;
3131;SDS011;62090;52.330;9.104;2023-02-03T04:06:40;15.23;;;8.33;;
3131;SDS011;62090;52.330;9.104;2023-02-03T04:09:09;16.17;;;8.70;;
3131;SDS011;62090;52.330;9.104;2023-02-03T04:11:39;23.33;;;8.80;;
3131;SDS011;62090;52.330;9.104;2023-02-03T04:14:21;15.60;;;8.60;;
3131;SDS011;62090;52.330;9.104;2023-02-03T04:16:51;20.07;;;9.93;;
3131;SDS011;62090;52.330;9.104;2023-02-03T04:19:21;20.57;;;8.67;;
3131;SDS011;62090;52.330;9.104;2023-02-03T04:21:53;20.87;;;9.97;;
3131;SDS011;62090;52.330;9.104;2023-02-03T04:24:23;17.23;;;7.70;;
3131;SDS011;62090;52.330;9.104;2023-02-03T04:26:53;15.47;;;8.40;;
3131;SDS011;62090;52.330;9.104;2023-02-03T04:29:23;21.60;;;8.10;;
3131;SDS011;62090;52.330;9.104;2023-02-03T04:31:52;19.97;;;8.57;;
3131;SDS011;62090;52.330;9.104;2023-02-03T04:34:22;17.27;;;8.10;;
3131;SDS011;62090;52.330;9.104;2023-02-03T04:36:55;17.50;;;7.97;;
3131;SDS011;62090;52.330;9.104;2023-02-03T04:39:24;18.40;;;8.37;;
3131;SDS011;62090;52.330;9.104;2023-02-03T04:41:54;17.03;;;7.97;;
3131;SDS011;62090;52.330;9.104;2023-02-03T04:44:24;17.63;;;7.57;;
3131;SDS011;62090;52.330;9.104;2023-02-03T04:46:53;19.33;;;7.50;;
3131;SDS011;62090;52.330;9.104;2023-02-03T04:49:23;17.27;;;7.50;;
3131;SDS011;62090;52.330;9.104;2023-02-03T04:51:56;15.70;;;7.23;;
3131;SDS011;62090;52.330;9.104;2023-02-03T04:54:25;14.57;;;7.20;;
3131;SDS011;62090;52.330;9.104;2023-02-03T04:56:55;16.87;;;6.83;;
3131;SDS011;62090;52.330;9.104;2023-02-03T04:59:25;14.47;;;6.47;;
3131;SDS011;62090;52.330;9.104;2023-02-03T05:01:55;12.67;;;6.63;;
3131;SDS011;62090;52.330;9.104;2023-02-03T05:04:25;13.73;;;6.30;;
3131;SDS011;62090;52.330;9.104;2023-02-03T05:06:57;13.70;;;6.10;;
3131;SDS011;62090;52.330;9.104;2023-02-03T05:09:27;20.90;;;7.03;;
3131;SDS011;62090;52.330;9.104;2023-02-03T05:11:57;12.80;;;5.50;;
3131;SDS011;62090;52.330;9.104;2023-02-03T05:14:27;15.67;;;6.43;;
3131;SDS011;62090;52.330;9.104;2023-02-03T05:16:56;13.33;;;6.23;;
3131;SDS011;62090;52.330;9.104;2023-02-03T05:19:26;11.37;;;5.63;;
3131;SDS011;62090;52.330;9.104;2023-02-03T05:21:58;17.77;;;6.67;;
3131;SDS011;62090;52.330;9.104;2023-02-03T05:24:28;18.73;;;5.93;;
3131;SDS011;62090;52.330;9.104;2023-02-03T05:26:58;18.90;;;6.83;;
3131;SDS011;62090;52.330;9.104;2023-02-03T05:29:27;10.90;;;5.27;;
3131;SDS011;62090;52.330;9.104;2023-02-03T05:31:57;14.87;;;4.93;;
3131;SDS011;62090;52.330;9.104;2023-02-03T05:34:27;23.00;;;6.43;;
3131;SDS011;62090;52.330;9.104;2023-02-03T05:36:59;17.40;;;4.90;;
3131;SDS011;62090;52.330;9.104;2023-02-03T05:39:29;11.80;;;4.60;;
3131;SDS011;62090;52.330;9.104;2023-02-03T05:41:59;15.10;;;4.80;;
3131;SDS011;62090;52.330;9.104;2023-02-03T05:44:26;17.07;;;4.60;;
3131;SDS011;62090;52.330;9.104;2023-02-03T05:46:57;10.47;;;4.00;;
3131;SDS011;62090;52.330;9.104;2023-02-03T05:49:27;11.13;;;4.93;;
3131;SDS011;62090;52.330;9.104;2023-02-03T05:51:59;19.13;;;5.10;;
3131;SDS011;62090;52.330;9.104;2023-02-03T05:54:30;14.50;;;4.50;;
3131;SDS011;62090;52.330;9.104;2023-02-03T05:56:59;11.23;;;4.90;;
3131;SDS011;62090;52.330;9.104;2023-02-03T05:59:29;14.80;;;4.60;;
3131;SDS011;62090;52.330;9.104;2023-02-03T06:01:59;14.60;;;4.63;;
3131;SDS011;62090;52.330;9.104;2023-02-03T06:04:28;11.90;;;4.37;;
3131;SDS011;62090;52.330;9.104;2023-02-03T06:07:01;23.17;;;5.27;;
3131;SDS011;62090;52.330;9.104;2023-02-03T06:09:30;12.87;;;5.00;;
3131;SDS011;62090;52.330;9.104;2023-02-03T06:12:00;11.50;;;3.90;;
3131;SDS011;62090;52.330;9.104;2023-02-03T06:14:30;13.27;;;4.90;;
3131;SDS011;62090;52.330;9.104;2023-02-03T06:17:00;13.23;;;4.53;;
3131;SDS011;62090;52.330;9.104;2023-02-03T06:19:29;9.83;;;3.87;;
3131;SDS011;62090;52.330;9.104;2023-02-03T06:22:02;8.37;;;3.90;;
3131;SDS011;62090;52.330;9.104;2023-02-03T06:24:32;18.70;;;4.57;;
3131;SDS011;62090;52.330;9.104;2023-02-03T06:27:01;12.60;;;5.10;;
3131;SDS011;62090;52.330;9.104;2023-02-03T06:29:31;13.00;;;3.97;;
3131;SDS011;62090;52.330;9.104;2023-02-03T06:32:01;11.17;;;4.67;;
3131;SDS011;62090;52.330;9.104;2023-02-03T06:34:31;9.73;;;3.83;;
3131;SDS011;62090;52.330;9.104;2023-02-03T06:37:03;12.70;;;4.73;;
3131;SDS011;62090;52.330;9.104;2023-02-03T06:39:33;7.23;;;4.13;;
3131;SDS011;62090;52.330;9.104;2023-02-03T06:42:03;19.53;;;5.70;;
3131;SDS011;62090;52.330;9.104;2023-02-03T06:44:32;12.33;;;3.83;;
3131;SDS011;62090;52.330;9.104;2023-02-03T06:47:02;9.07;;;4.60;;
3131;SDS011;62090;52.330;9.104;2023-02-03T06:49:32;10.47;;;4.07;;
3131;SDS011;62090;52.330;9.104;2023-02-03T06:52:04;19.13;;;4.93;;
3131;SDS011;62090;52.330;9.104;2023-02-03T06:54:34;18.87;;;5.47;;
3131;SDS011;62090;52.330;9.104;2023-02-03T06:57:04;7.10;;;4.27;;
3131;SDS011;62090;52.330;9.104;2023-02-03T06:59:33;11.43;;;5.10;;
3131;SDS011;62090;52.330;9.104;2023-02-03T07:02:03;9.40;;;5.20;;
3131;SDS011;62090;52.330;9.104;2023-02-03T07:04:33;10.40;;;5.10;;
3131;SDS011;62090;52.330;9.104;2023-02-03T07:07:06;15.87;;;5.60;;
3131;SDS011;62090;52.330;9.104;2023-02-03T07:09:36;12.00;;;5.57;;
3131;SDS011;62090;52.330;9.104;2023-02-03T07:12:06;15.67;;;6.20;;
3131;SDS011;62090;52.330;9.104;2023-02-03T07:14:37;16.77;;;6.50;;
3131;SDS011;62090;52.330;9.104;2023-02-03T07:17:06;19.63;;;6.73;;
3131;SDS011;62090;52.330;9.104;2023-02-03T07:19:36;12.17;;;6.70;;
3131;SDS011;62090;52.330;9.104;2023-02-03T07:22:08;14.43;;;6.60;;
3131;SDS011;62090;52.330;9.104;2023-02-03T07:24:39;15.63;;;6.90;;
3131;SDS011;62090;52.330;9.104;2023-02-03T07:27:08;12.13;;;6.80;;
3131;SDS011;62090;52.330;9.104;2023-02-03T07:29:38;16.90;;;7.27;;
3131;SDS011;62090;52.330;9.104;2023-02-03T07:32:08;11.63;;;6.87;;
3131;SDS011;62090;52.330;9.104;2023-02-03T07:34:37;12.70;;;7.57;;
3131;SDS011;62090;52.330;9.104;2023-02-03T07:37:10;12.30;;;7.53;;
3131;SDS011;62090;52.330;9.104;2023-02-03T07:39:39;17.30;;;8.10;;
3131;SDS011;62090;52.330;9.104;2023-02-03T07:42:09;14.43;;;7.57;;
3131;SDS011;62090;52.330;9.104;2023-02-03T07:44:43;13.93;;;7.60;;
3131;SDS011;62090;52.330;9.104;2023-02-03T07:47:13;11.03;;;7.10;;
3131;SDS011;62090;52.330;9.104;2023-02-03T07:49:43;18.70;;;8.53;;
3131;SDS011;62090;52.330;9.104;2023-02-03T07:52:15;16.73;;;7.93;;
3131;SDS011;62090;52.330;9.104;2023-02-03T07:54:47;14.30;;;6.97;;
3131;SDS011;62090;52.330;9.104;2023-02-03T07:57:17;9.07;;;6.90;;
3131;SDS011;62090;52.330;9.104;2023-02-03T07:59:46;13.40;;;6.97;;
3131;SDS011;62090;52.330;9.104;2023-02-03T08:02:16;15.50;;;7.40;;
3131;SDS011;62090;52.330;9.104;2023-02-03T08:04:45;13.10;;;7.20;;
3131;SDS011;62090;52.330;9.104;2023-02-03T08:07:18;12.80;;;7.40;;
3131;SDS011;62090;52.330;9.104;2023-02-03T08:09:47;13.80;;;6.90;;
3131;SDS011;62090;52.330;9.104;2023-02-03T08:12:17;12.83;;;6.90;;
3131;SDS011;62090;52.330;9.104;2023-02-03T08:14:47;14.07;;;7.00;;
3131;SDS011;62090;52.330;9.104;2023-02-03T08:17:16;11.50;;;6.80;;
3131;SDS011;62090;52.330;9.104;2023-02-03T08:19:46;14.23;;;6.67;;
3131;SDS011;62090;52.330;9.104;2023-02-03T08:22:18;14.17;;;6.53;;
3131;SDS011;62090;52.330;9.104;2023-02-03T08:24:48;10.30;;;5.93;;
3131;SDS011;62090;52.330;9.104;2023-02-03T08:27:18;17.43;;;6.17;;
3131;SDS011;62090;52.330;9.104;2023-02-03T08:29:50;12.70;;;6.07;;
3131;SDS011;62090;52.330;9.104;2023-02-03T08:32:20;17.37;;;5.77;;
3131;SDS011;62090;52.330;9.104;2023-02-03T08:34:51;12.50;;;5.77;;
3131;SDS011;62090;52.330;9.104;2023-02-03T08:37:24;13.30;;;6.20;;
3131;SDS011;62090;52.330;9.104;2023-02-03T08:39:55;14.40;;;5.77;;
3131;SDS011;62090;52.330;9.104;2023-02-03T08:42:25;12.90;;;5.70;;
3131;SDS011;62090;52.330;9.104;2023-02-03T08:44:55;13.70;;;5.43;;
3131;SDS011;62090;52.330;9.104;2023-02-03T08:47:25;12.20;;;5.23;;
3131;SDS011;62090;52.330;9.104;2023-02-03T08:49:54;14.80;;;5.23;;
3131;SDS011;62090;52.330;9.104;2023-02-03T08:52:27;14.13;;;5.90;;
3131;SDS011;62090;52.330;9.104;2023-02-03T08:54:56;13.03;;;5.50;;
3131;SDS011;62090;52.330;9.104;2023-02-03T08:57:26;15.83;;;5.90;;
3131;SDS011;62090;52.330;9.104;2023-02-03T08:59:59;15.87;;;5.30;;
3131;SDS011;62090;52.330;9.104;2023-02-03T09:02:29;10.30;;;5.00;;
3131;SDS011;62090;52.330;9.104;2023-02-03T09:04:59;17.57;;;5.43;;
3131;SDS011;62090;52.330;9.104;2023-02-03T09:07:32;14.70;;;5.20;;
3131;SDS011;62090;52.330;9.104;2023-02-03T09:10:02;13.07;;;4.77;;
3131;SDS011;62090;52.330;9.104;2023-02-03T09:12:32;21.50;;;5.70;;
3131;SDS011;62090;52.330;9.104;2023-02-03T09:15:01;15.10;;;4.80;;
3131;SDS011;62090;52.330;9.104;2023-02-03T09:17:31;24.70;;;4.97;;
3131;SDS011;62090;52.330;9.104;2023-02-03T09:20:01;13.80;;;4.90;;
3131;SDS011;62090;52.330;9.104;2023-02-03T09:22:33;13.70;;;4.77;;
3131;SDS011;62090;52.330;9.104;2023-02-03T09:25:03;17.57;;;4.70;;
3131;SDS011;62090;52.330;9.104;2023-02-03T09:27:34;16.53;;;4.20;;
3131;SDS011;62090;52.330;9.104;2023-02-03T09:30:04;12.03;;;3.47;;
3131;SDS011;62090;52.330;9.104;2023-02-03T09:32:35;12.07;;;4.33;;
3131;SDS011;62090;52.330;9.104;2023-02-03T09:35:05;11.70;;;3.90;;
3131;SDS011;62090;52.330;9.104;2023-02-03T09:37:37;17.50;;;4.50;;
3131;SDS011;62090;52.330;9.104;2023-02-03T09:40:08;11.10;;;3.67;;
3131;SDS011;62090;52.330;9.104;2023-02-03T09:42:57;12.33;;;3.03;;
3131;SDS011;62090;52.330;9.104;2023-02-03T09:45:33;11.90;;;3.33;;
3131;SDS011;62090;52.330;9.104;2023-02-03T09:48:03;6.50;;;2.70;;
3131;SDS011;62090;52.330;9.104;2023-02-03T09:50:41;13.57;;;2.43;;
3131;SDS011;62090;52.330;9.104;2023-02-03T09:53:19;15.07;;;3.03;;
3131;SDS011;62090;52.330;9.104;2023-02-03T09:55:56;14.83;;;3.20;;
3131;SDS011;62090;52.330;9.104;2023-02-03T09:58:28;11.53;;;2.90;;
3131;SDS011;62090;52.330;9.104;2023-02-03T10:01:02;14.77;;;3.30;;
3131;SDS011;62090;52.330;9.104;2023-02-03T10:03:37;12.23;;;3.47;;
3131;SDS011;62090;52.330;9.104;2023-02-03T10:06:13;16.40;;;2.57;;
3131;SDS011;62090;52.330;9.104;2023-02-03T10:11:53;11.90;;;2.57;;
3131;SDS011;62090;52.330;9.104;2023-02-03T10:14:39;14.73;;;3.20;;
3131;SDS011;62090;52.330;9.104;2023-02-03T10:17:24;11.63;;;2.90;;
3131;SDS011;62090;52.330;9.104;2023-02-03T10:20:00;8.50;;;2.33;;
3131;SDS011;62090;52.330;9.104;2023-02-03T10:22:37;8.07;;;2.60;;
3131;SDS011;62090;52.330;9.104;2023-02-03T10:25:17;10.37;;;2.77;;
3131;SDS011;62090;52.330;9.104;2023-02-03T10:27:50;20.70;;;2.70;;
3131;SDS011;62090;52.330;9.104;2023-02-03T10:30:28;10.17;;;2.30;;
3131;SDS011;62090;52.330;9.104;2023-02-03T10:33:08;11.30;;;2.40;;
3131;SDS011;62090;52.330;9.104;2023-02-03T10:35:40;16.70;;;2.90;;
3131;SDS011;62090;52.330;9.104;2023-02-03T10:38:20;13.60;;;3.30;;
3131;SDS011;62090;52.330;9.104;2023-02-03T10:41:03;15.97;;;2.57;;
3131;SDS011;62090;52.330;9.104;2023-02-03T10:43:33;14.13;;;3.13;;
3131;SDS011;62090;52.330;9.104;2023-02-03T10:46:18;18.40;;;4.53;;
3131;SDS011;62090;52.330;9.104;2023-02-03T10:48:49;11.50;;;2.80;;
3131;SDS011;62090;52.330;9.104;2023-02-03T10:51:20;16.20;;;3.53;;
3131;SDS011;62090;52.330;9.104;2023-02-03T10:53:55;11.43;;;3.40;;
3131;SDS011;62090;52.330;9.104;2023-02-03T10:56:28;17.30;;;2.80;;
3131;SDS011;62090;52.330;9.104;2023-02-03T10:59:01;20.90;;;3.57;;
3131;SDS011;62090;52.330;9.104;2023-02-03T11:01:40;18.37;;;4.20;;
3131;SDS011;62090;52.330;9.104;2023-02-03T11:09:04;13.77;;;3.10;;
3131;SDS011;62090;52.330;9.104;2023-02-03T11:20:42;32.20;;;4.20;;
3131;SDS011;62090;52.330;9.104;2023-02-03T11:23:12;21.63;;;4.10;;
3131;SDS011;62090;52.330;9.104;2023-02-03T11:25:42;19.87;;;4.30;;
3131;SDS011;62090;52.330;9.104;2023-02-03T11:28:14;19.83;;;4.10;;
3131;SDS011;62090;52.330;9.104;2023-02-03T11:30:53;23.30;;;4.07;;
3131;SDS011;62090;52.330;9.104;2023-02-03T11:33:26;26.97;;;4.40;;
3131;SDS011;62090;52.330;9.104;2023-02-03T11:36:05;25.53;;;5.27;;
3131;SDS011;62090;52.330;9.104;2023-02-03T11:38:40;26.63;;;4.33;;
3131;SDS011;62090;52.330;9.104;2023-02-03T11:41:16;20.00;;;4.07;;
3131;SDS011;62090;52.330;9.104;2023-02-03T11:43:50;24.53;;;4.00;;
3131;SDS011;62090;52.330;9.104;2023-02-03T11:46:27;23.90;;;5.37;;
3131;SDS011;62090;52.330;9.104;2023-02-03T11:48:59;27.73;;;5.20;;
3131;SDS011;62090;52.330;9.104;2023-02-03T11:51:43;17.00;;;3.90;;
3131;SDS011;62090;52.330;9.104;2023-02-03T11:54:23;26.27;;;4.63;;
3131;SDS011;62090;52.330;9.104;2023-02-03T11:57:04;28.93;;;5.60;;
3131;SDS011;62090;52.330;9.104;2023-02-03T12:00:01;30.03;;;5.40;;
3131;SDS011;62090;52.330;9.104;2023-02-03T12:56:55;35.83;;;6.33;;
3131;SDS011;62090;52.330;9.104;2023-02-03T13:05:18;25.60;;;5.70;;
3131;SDS011;62090;52.330;9.104;2023-02-03T13:08:59;28.43;;;4.77;;
3131;SDS011;62090;52.330;9.104;2023-02-03T13:28:36;28.17;;;5.40;;
3131;SDS011;62090;52.330;9.104;2023-02-03T13:31:29;23.60;;;5.00;;
3131;SDS011;62090;52.330;9.104;2023-02-03T13:34:12;24.43;;;4.90;;
3131;SDS011;62090;52.330;9.104;2023-02-03T13:37:02;32.67;;;5.57;;
3131;SDS011;62090;52.330;9.104;2023-02-03T13:39:59;29.40;;;5.43;;
3131;SDS011;62090;52.330;9.104;2023-02-03T13:42:47;28.93;;;6.03;;
3131;SDS011;62090;52.330;9.104;2023-02-03T13:45:29;31.77;;;5.40;;
3131;SDS011;62090;52.330;9.104;2023-02-03T13:51:51;26.57;;;6.33;;
3131;SDS011;62090;52.330;9.104;2023-02-03T13:54:51;28.53;;;4.70;;
3131;SDS011;62090;52.330;9.104;2023-02-03T13:57:21;25.97;;;4.83;;
3131;SDS011;62090;52.330;9.104;2023-02-03T14:00:03;23.77;;;4.83;;
3131;SDS011;62090;52.330;9.104;2023-02-03T14:02:44;28.30;;;6.30;;
3131;SDS011;62090;52.330;9.104;2023-02-03T14:28:23;35.23;;;6.80;;
3131;SDS011;62090;52.330;9.104;2023-02-03T14:31:23;38.23;;;7.40;;
3131;SDS011;62090;52.330;9.104;2023-02-03T14:36:24;35.10;;;6.83;;
3131;SDS011;62090;52.330;9.104;2023-02-03T14:52:27;32.93;;;5.60;;
3131;SDS011;62090;52.330;9.104;2023-02-03T14:55:34;24.90;;;4.77;;
3131;SDS011;62090;52.330;9.104;2023-02-03T14:58:44;28.03;;;4.63;;
3131;SDS011;62090;52.330;9.104;2023-02-03T15:25:55;33.60;;;5.57;;
3131;SDS011;62090;52.330;9.104;2023-02-03T15:32:07;22.00;;;4.50;;
3131;SDS011;62090;52.330;9.104;2023-02-03T15:38:36;32.80;;;6.17;;
3131;SDS011;62090;52.330;9.104;2023-02-03T15:49:36;23.50;;;5.00;;
3131;SDS011;62090;52.330;9.104;2023-02-03T15:52:19;29.77;;;4.97;;
3131;SDS011;62090;52.330;9.104;2023-02-03T15:58:53;27.17;;;5.03;;
3131;SDS011;62090;52.330;9.104;2023-02-03T16:34:24;40.83;;;6.37;;
3131;SDS011;62090;52.330;9.104;2023-02-03T16:37:19;36.37;;;5.87;;
3131;SDS011;62090;52.330;9.104;2023-02-03T16:40:35;28.17;;;5.67;;
3131;SDS011;62090;52.330;9.104;2023-02-03T16:43:27;29.13;;;5.93;;
3131;SDS011;62090;52.330;9.104;2023-02-03T16:46:40;29.67;;;6.90;;
3131;SDS011;62090;52.330;9.104;2023-02-03T16:49:38;30.47;;;6.17;;
3131;SDS011;62090;52.330;9.104;2023-02-03T16:52:27;34.23;;;6.97;;
3131;SDS011;62090;52.330;9.104;2023-02-03T16:55:00;29.73;;;5.10;;
3131;SDS011;62090;52.330;9.104;2023-02-03T16:57:34;32.90;;;5.47;;
3131;SDS011;62090;52.330;9.104;2023-02-03T17:00:11;27.93;;;5.83;;
3131;SDS011;62090;52.330;9.104;2023-02-03T17:02:49;30.20;;;6.00;;
3131;SDS011;62090;52.330;9.104;2023-02-03T17:05:27;29.23;;;5.07;;
3131;SDS011;62090;52.330;9.104;2023-02-03T17:08:10;30.20;;;4.57;;
3131;SDS011;62090;52.330;9.104;2023-02-03T17:10:43;24.43;;;5.73;;
3131;SDS011;62090;52.330;9.104;2023-02-03T17:13:19;31.07;;;5.73;;
3131;SDS011;62090;52.330;9.104;2023-02-03T17:15:55;18.83;;;4.70;;
3131;SDS011;62090;52.330;9.104;2023-02-03T17:18:28;28.07;;;5.43;;
3131;SDS011;62090;52.330;9.104;2023-02-03T17:24:18;33.80;;;6.70;;
3131;SDS011;62090;52.330;9.104;2023-02-03T17:27:13;32.10;;;5.67;;
3131;SDS011;62090;52.330;9.104;2023-02-03T17:30:21;28.40;;;5.87;;
3131;SDS011;62090;52.330;9.104;2023-02-03T17:34:21;23.53;;;5.30;;
3131;SDS011;62090;52.330;9.104;2023-02-03T17:50:45;23.30;;;5.77;;
3131;SDS011;62090;52.330;9.104;2023-02-03T18:15:50;38.03;;;6.57;;
3131;SDS011;62090;52.330;9.104;2023-02-03T18:19:12;40.07;;;6.13;;
3131;SDS011;62090;52.330;9.104;2023-02-03T18:29:19;28.87;;;5.80;;
3131;SDS011;62090;52.330;9.104;2023-02-03T18:32:51;30.60;;;6.20;;
3131;SDS011;62090;52.330;9.104;2023-02-03T18:57:47;28.47;;;5.57;;
3131;SDS011;62090;52.330;9.104;2023-02-03T19:07:29;33.03;;;7.97;;
3131;SDS011;62090;52.330;9.104;2023-02-03T19:13:57;32.47;;;5.63;;
3131;SDS011;62090;52.330;9.104;2023-02-03T19:16:58;40.23;;;7.17;;
3131;SDS011;62090;52.330;9.104;2023-02-03T19:27:01;37.53;;;7.13;;
3131;SDS011;62090;52.330;9.104;2023-02-03T19:31:11;42.10;;;8.80;;
3131;SDS011;62090;52.330;9.104;2023-02-03T19:37:29;36.27;;;7.17;;
3131;SDS011;62090;52.330;9.104;2023-02-03T19:40:14;34.80;;;6.20;;
3131;SDS011;62090;52.330;9.104;2023-02-03T19:43:46;37.83;;;7.03;;
3131;SDS011;62090;52.330;9.104;2023-02-03T19:46:37;40.00;;;6.90;;
3131;SDS011;62090;52.330;9.104;2023-02-03T19:49:27;41.57;;;7.70;;
